createdAt,value
2018-06-29T00:02:32.496Z,19.80
2018-06-29T00:05:08.585Z,20.00
2018-06-29T00:07:43.556Z,19.90
2018-06-29T00:10:22.396Z,20.00
2018-06-29T00:12:57.352Z,19.70
2018-06-29T00:15:32.503Z,19.50
2018-06-29T00:18:07.488Z,19.50
2018-06-29T00:20:42.616Z,19.60
2018-06-29T00:23:17.715Z,19.30
2018-06-29T00:25:52.708Z,19.50
2018-06-29T00:28:27.864Z,19.20
2018-06-29T00:31:02.963Z,19.10
2018-06-29T00:33:38.080Z,19.10
2018-06-29T00:36:13.332Z,19.10
2018-06-29T00:38:48.227Z,19.20
2018-06-29T00:41:23.254Z,19.00
2018-06-29T00:43:58.339Z,18.80
2018-06-29T00:46:33.512Z,18.80
2018-06-29T00:49:08.594Z,18.80
2018-06-29T00:51:43.586Z,19.00
2018-06-29T00:54:18.720Z,18.90
2018-06-29T00:56:53.787Z,19.10
2018-06-29T00:59:28.831Z,19.10
2018-06-29T01:02:04.036Z,19.10
2018-06-29T01:04:39.292Z,19.20
2018-06-29T01:07:15.260Z,18.80
2018-06-29T01:09:50.392Z,18.80
2018-06-29T01:12:25.488Z,18.90
2018-06-29T01:15:00.531Z,18.90
2018-06-29T01:17:35.976Z,18.90
2018-06-29T01:20:11.040Z,18.90
2018-06-29T01:22:45.980Z,18.80
2018-06-29T01:25:20.948Z,18.70
2018-06-29T01:27:56.027Z,18.70
2018-06-29T01:30:31.034Z,18.70
2018-06-29T01:33:06.120Z,18.40
2018-06-29T01:35:41.081Z,18.50
2018-06-29T01:38:16.048Z,18.40
2018-06-29T01:40:51.016Z,18.80
2018-06-29T01:43:26.096Z,18.60
2018-06-29T01:46:01.196Z,18.80
2018-06-29T01:48:36.196Z,18.70
2018-06-29T01:51:11.536Z,18.70
2018-06-29T01:53:46.567Z,18.70
2018-06-29T01:56:21.720Z,18.60
2018-06-29T01:58:56.880Z,18.50
2018-06-29T02:01:31.944Z,18.20
2018-06-29T02:04:06.905Z,18.20
2018-06-29T02:06:42.039Z,17.70
2018-06-29T02:09:17.191Z,18.20
2018-06-29T02:14:27.392Z,18.30
2018-06-29T02:17:02.632Z,18.10
2018-06-29T02:19:37.576Z,18.30
2018-06-29T02:22:12.692Z,18.10
2018-06-29T02:24:47.675Z,18.00
2018-06-29T02:27:22.684Z,17.90
2018-06-29T02:29:57.747Z,18.00
2018-06-29T02:32:32.844Z,17.40
2018-06-29T02:35:08.097Z,17.60
2018-06-29T02:37:43.068Z,17.40
2018-06-29T02:40:18.181Z,17.50
2018-06-29T02:42:53.159Z,17.50
2018-06-29T02:45:28.117Z,17.50
2018-06-29T02:48:03.080Z,17.20
2018-06-29T02:50:38.089Z,17.20
2018-06-29T02:53:13.376Z,17.20
2018-06-29T02:55:48.488Z,17.30
2018-06-29T02:58:23.524Z,16.90
2018-06-29T03:03:33.224Z,17.30
2018-06-29T03:06:08.320Z,17.40
2018-06-29T03:08:43.407Z,17.00
2018-06-29T03:11:18.340Z,17.00
2018-06-29T03:13:53.868Z,17.10
2018-06-29T03:16:28.780Z,17.40
2018-06-29T03:19:03.732Z,16.90
2018-06-29T03:21:38.720Z,16.90
2018-06-29T03:24:13.756Z,16.90
2018-06-29T03:26:48.772Z,16.50
2018-06-29T03:29:23.715Z,16.70
2018-06-29T03:31:58.796Z,16.70
2018-06-29T03:34:33.854Z,16.90
2018-06-29T03:37:08.792Z,16.90
2018-06-29T03:39:43.861Z,17.00
2018-06-29T03:42:18.957Z,17.10
2018-06-29T03:44:53.894Z,17.00
2018-06-29T03:47:28.867Z,16.80
2018-06-29T03:50:03.912Z,17.10
2018-06-29T03:52:38.860Z,16.80
2018-06-29T03:55:13.984Z,16.90
2018-06-29T04:00:23.812Z,17.00
2018-06-29T04:02:58.856Z,17.10
2018-06-29T04:05:33.952Z,17.10
2018-06-29T04:08:08.932Z,17.20
2018-06-29T04:10:44.056Z,16.80
2018-06-29T04:13:20.010Z,16.90
2018-06-29T04:15:56.316Z,17.10
2018-06-29T04:18:31.439Z,16.80
2018-06-29T04:21:06.582Z,17.00
2018-06-29T04:23:41.640Z,16.90
2018-06-29T04:26:16.579Z,16.80
2018-06-29T04:28:51.645Z,17.10
2018-06-29T04:31:26.712Z,17.60
2018-06-29T04:34:01.928Z,18.40
2018-06-29T04:36:46.794Z,19.00
2018-06-29T04:39:21.831Z,19.50
2018-06-29T04:41:56.968Z,20.50
2018-06-29T04:44:32.072Z,20.60
2018-06-29T04:47:07.212Z,20.90
2018-06-29T04:49:42.387Z,21.80
2018-06-29T04:52:17.408Z,22.30
2018-06-29T04:54:52.416Z,22.40
2018-06-29T04:57:27.452Z,21.60
2018-06-29T05:00:02.503Z,21.10
2018-06-29T05:02:37.468Z,21.80
2018-06-29T05:05:12.533Z,22.40
2018-06-29T05:07:47.666Z,22.60
2018-06-29T05:10:22.609Z,22.90
2018-06-29T05:12:57.735Z,23.20
2018-06-29T05:15:32.888Z,23.60
2018-06-29T05:18:08.373Z,23.40
2018-06-29T05:20:43.293Z,23.10
2018-06-29T05:23:18.436Z,22.60
2018-06-29T05:25:53.575Z,22.50
2018-06-29T05:31:03.403Z,21.00
2018-06-29T05:33:38.664Z,21.00
2018-06-29T05:36:13.720Z,20.80
2018-06-29T05:38:48.788Z,21.10
2018-06-29T05:41:23.987Z,20.70
2018-06-29T05:43:59.092Z,20.70
2018-06-29T05:46:34.344Z,20.50
2018-06-29T05:49:09.786Z,20.40
2018-06-29T05:51:44.946Z,20.20
2018-06-29T05:54:20.029Z,20.30
2018-06-29T05:56:54.992Z,20.20
2018-06-29T05:59:30.187Z,20.10
2018-06-29T06:02:05.711Z,20.40
2018-06-29T06:04:40.674Z,20.20
2018-06-29T06:07:15.756Z,20.50
2018-06-29T06:09:50.887Z,20.20
2018-06-29T06:12:25.824Z,20.50
2018-06-29T06:17:36.372Z,20.70
2018-06-29T06:20:14.844Z,20.50
2018-06-29T06:22:49.832Z,20.50
2018-06-29T06:25:24.822Z,20.40
2018-06-29T06:27:59.831Z,20.50
2018-06-29T06:30:34.939Z,20.70
2018-06-29T06:33:10.086Z,20.10
2018-06-29T06:35:45.019Z,20.40
2018-06-29T06:38:20.008Z,20.60
2018-06-29T06:40:55.191Z,20.80
2018-06-29T06:43:30.148Z,20.70
2018-06-29T06:46:05.328Z,20.80
2018-06-29T06:48:40.457Z,20.80
2018-06-29T06:51:15.573Z,20.60
2018-06-29T06:53:50.456Z,20.70
2018-06-29T06:56:25.644Z,20.90
2018-06-29T06:59:00.847Z,21.00
2018-06-29T07:01:35.834Z,20.90
2018-06-29T07:04:11.007Z,20.70
2018-06-29T07:06:45.963Z,20.70
2018-06-29T07:09:21.174Z,20.70
2018-06-29T07:11:56.199Z,21.00
2018-06-29T07:14:31.159Z,21.30
2018-06-29T07:17:06.283Z,21.40
2018-06-29T07:19:41.283Z,21.40
2018-06-29T07:22:16.215Z,21.40
2018-06-29T07:24:51.687Z,21.60
2018-06-29T07:27:26.884Z,21.80
2018-06-29T07:30:01.881Z,21.70
2018-06-29T07:32:36.814Z,21.80
2018-06-29T07:35:11.920Z,21.70
2018-06-29T07:37:46.859Z,21.70
2018-06-29T07:40:21.971Z,21.70
2018-06-29T07:42:57.111Z,21.70
2018-06-29T07:45:32.159Z,21.80
2018-06-29T07:48:07.104Z,21.90
2018-06-29T07:50:42.248Z,21.90
2018-06-29T07:53:17.225Z,22.10
2018-06-29T07:55:52.177Z,22.00
2018-06-29T07:58:27.318Z,22.10
2018-06-29T08:01:04.780Z,22.30
2018-06-29T08:03:39.707Z,22.50
2018-06-29T08:06:14.868Z,22.80
2018-06-29T08:08:49.952Z,23.60
2018-06-29T08:11:25.152Z,24.20
2018-06-29T08:14:01.157Z,24.80
2018-06-29T08:16:38.110Z,25.10
2018-06-29T08:19:13.184Z,25.60
2018-06-29T08:21:48.377Z,25.90
2018-06-29T08:24:23.436Z,25.60
2018-06-29T08:26:58.508Z,25.40
2018-06-29T08:29:33.600Z,25.30
2018-06-29T08:32:08.708Z,25.20
2018-06-29T08:34:43.839Z,25.20
2018-06-29T08:37:19.181Z,25.30
2018-06-29T08:39:54.095Z,25.30
2018-06-29T08:42:29.143Z,25.40
2018-06-29T08:45:04.512Z,25.40
2018-06-29T08:47:39.703Z,25.40
2018-06-29T08:50:14.615Z,25.40
2018-06-29T08:52:49.717Z,25.50
2018-06-29T08:55:24.788Z,25.50
2018-06-29T08:57:59.771Z,25.60
2018-06-29T09:00:34.892Z,25.60
2018-06-29T09:03:10.152Z,25.60
2018-06-29T09:05:45.592Z,25.60
2018-06-29T09:08:20.741Z,25.60
2018-06-29T09:10:55.897Z,25.50
2018-06-29T09:13:30.795Z,25.60
2018-06-29T09:16:05.954Z,25.60
2018-06-29T09:18:41.012Z,25.60
2018-06-29T09:21:16.044Z,25.60
2018-06-29T09:23:51.147Z,25.70
2018-06-29T09:26:26.287Z,25.70
2018-06-29T09:29:01.396Z,25.80
2018-06-29T09:31:36.492Z,25.80
2018-06-29T09:34:11.432Z,25.80
2018-06-29T09:36:46.504Z,25.90
2018-06-29T09:39:21.612Z,26.00
2018-06-29T09:41:56.664Z,26.00
2018-06-29T09:44:31.777Z,26.00
2018-06-29T09:47:07.459Z,26.00
2018-06-29T09:49:42.952Z,26.00
2018-06-29T09:52:17.985Z,26.10
2018-06-29T09:54:53.287Z,26.10
2018-06-29T09:57:28.368Z,26.10
2018-06-29T10:00:04.672Z,26.20
2018-06-29T10:02:39.599Z,26.20
2018-06-29T10:05:14.565Z,26.20
2018-06-29T10:07:49.628Z,26.20
2018-06-29T10:10:24.742Z,26.20
2018-06-29T10:12:59.673Z,26.30
2018-06-29T10:15:34.659Z,26.30
2018-06-29T10:18:09.792Z,26.30
2018-06-29T10:20:45.079Z,26.30
2018-06-29T10:23:20.108Z,26.30
2018-06-29T10:25:55.177Z,26.30
2018-06-29T10:28:30.609Z,26.30
2018-06-29T10:31:05.706Z,26.30
2018-06-29T10:33:40.816Z,26.30
2018-06-29T10:36:16.023Z,26.30
2018-06-29T10:38:51.191Z,26.30
2018-06-29T10:41:26.315Z,26.30
2018-06-29T10:44:01.268Z,26.30
2018-06-29T10:46:36.576Z,26.30
2018-06-29T10:49:11.674Z,26.30
2018-06-29T10:51:46.679Z,26.30
2018-06-29T10:54:21.736Z,26.30
2018-06-29T10:56:56.808Z,26.30
2018-06-29T10:59:31.809Z,26.30
2018-06-29T11:02:06.870Z,26.30
2018-06-29T11:04:42.059Z,26.30
2018-06-29T11:07:17.021Z,26.30
2018-06-29T11:09:51.968Z,26.20
2018-06-29T11:12:27.060Z,26.20
2018-06-29T11:15:02.056Z,26.30
2018-06-29T11:17:37.084Z,26.30
2018-06-29T11:20:12.049Z,26.30
2018-06-29T11:22:47.025Z,26.40
2018-06-29T11:25:21.992Z,26.50
2018-06-29T11:27:57.164Z,26.60
2018-06-29T11:30:32.264Z,26.70
2018-06-29T11:33:07.387Z,26.70
2018-06-29T11:35:42.392Z,26.70
2018-06-29T11:38:17.368Z,26.80
2018-06-29T11:40:52.513Z,26.80
2018-06-29T11:43:27.591Z,26.80
2018-06-29T11:46:02.779Z,26.80
2018-06-29T11:48:37.722Z,26.80
2018-06-29T11:51:12.852Z,26.90
2018-06-29T11:53:47.864Z,26.90
2018-06-29T11:56:23.341Z,26.90
2018-06-29T11:58:58.276Z,26.90
2018-06-29T12:01:33.412Z,26.90
2018-06-29T12:04:08.509Z,26.90
2018-06-29T12:06:43.580Z,26.90
2018-06-29T12:09:18.558Z,26.90
2018-06-29T12:11:53.501Z,26.90
2018-06-29T12:14:28.615Z,27.00
2018-06-29T12:17:03.905Z,27.00
2018-06-29T12:19:38.887Z,27.10
2018-06-29T12:22:13.937Z,27.10
2018-06-29T12:24:49.427Z,27.10
2018-06-29T12:27:24.494Z,27.20
2018-06-29T12:29:59.590Z,27.20
2018-06-29T12:32:34.519Z,27.20
2018-06-29T12:35:09.628Z,27.20
2018-06-29T12:37:44.836Z,27.20
2018-06-29T12:40:21.137Z,27.30
2018-06-29T12:42:56.271Z,27.30
2018-06-29T12:45:31.175Z,27.30
2018-06-29T12:48:06.432Z,27.30
2018-06-29T12:50:41.468Z,27.40
2018-06-29T12:53:17.552Z,27.40
2018-06-29T12:55:52.549Z,27.40
2018-06-29T12:58:27.614Z,27.40
2018-06-29T13:01:02.753Z,27.40
2018-06-29T13:03:37.712Z,27.40
2018-06-29T13:06:12.841Z,27.40
2018-06-29T13:08:48.173Z,27.50
2018-06-29T13:11:23.619Z,27.50
2018-06-29T13:13:58.643Z,27.50
2018-06-29T13:16:33.825Z,27.50
2018-06-29T13:19:08.928Z,27.50
2018-06-29T13:21:44.244Z,27.50
2018-06-29T13:24:19.247Z,27.50
2018-06-29T13:26:54.299Z,27.50
2018-06-29T13:29:29.488Z,27.50
2018-06-29T13:32:04.439Z,27.60
2018-06-29T13:34:39.540Z,27.50
2018-06-29T13:37:14.620Z,27.50
2018-06-29T13:39:50.888Z,27.60
2018-06-29T13:42:26.011Z,27.60
2018-06-29T13:45:01.140Z,27.60
2018-06-29T13:47:36.435Z,27.60
2018-06-29T13:50:11.448Z,27.60
2018-06-29T13:52:46.508Z,27.60
2018-06-29T13:55:21.800Z,27.60
2018-06-29T14:00:31.676Z,27.70
2018-06-29T14:03:06.785Z,27.70
2018-06-29T14:05:42.000Z,27.70
2018-06-29T14:08:16.979Z,27.70
2018-06-29T14:10:51.988Z,27.70
2018-06-29T14:13:26.867Z,27.70
2018-06-29T14:16:02.076Z,27.70
2018-06-29T14:18:37.241Z,27.70
2018-06-29T14:21:12.576Z,27.70
2018-06-29T14:23:47.663Z,27.70
2018-06-29T14:26:22.788Z,27.70
2018-06-29T14:28:57.887Z,27.80
2018-06-29T14:31:32.860Z,27.80
2018-06-29T14:34:07.964Z,27.80
2018-06-29T14:36:43.188Z,27.80
2018-06-29T14:39:18.096Z,27.80
2018-06-29T14:41:53.052Z,27.80
2018-06-29T14:44:28.139Z,27.80
2018-06-29T14:47:03.320Z,27.80
2018-06-29T14:49:38.433Z,27.70
2018-06-29T14:52:13.444Z,27.70
2018-06-29T14:54:48.556Z,27.60
2018-06-29T14:57:23.779Z,27.70
2018-06-29T15:02:59.854Z,27.70
2018-06-29T15:05:34.923Z,27.70
2018-06-29T15:08:10.035Z,27.80
2018-06-29T15:10:45.144Z,27.80
2018-06-29T15:13:20.260Z,27.80
2018-06-29T15:15:55.435Z,27.90
2018-06-29T15:18:30.432Z,27.90
2018-06-29T15:21:05.460Z,27.90
2018-06-29T15:23:40.580Z,28.00
2018-06-29T15:26:15.567Z,27.90
2018-06-29T15:28:50.667Z,28.00
2018-06-29T15:31:25.994Z,28.00
2018-06-29T15:34:00.835Z,28.00
2018-06-29T15:36:35.800Z,28.00
2018-06-29T15:39:12.503Z,28.00
2018-06-29T15:41:47.554Z,28.00
2018-06-29T15:44:22.539Z,28.00
2018-06-29T15:46:57.575Z,28.00
2018-06-29T15:49:33.003Z,28.00
2018-06-29T15:52:08.090Z,28.00
2018-06-29T15:54:43.160Z,28.00
2018-06-29T15:57:18.200Z,28.00
2018-06-29T15:59:53.167Z,28.00
2018-06-29T16:02:28.263Z,28.00
2018-06-29T16:05:03.336Z,28.00
2018-06-29T16:07:38.524Z,28.00
2018-06-29T16:10:13.638Z,28.00
2018-06-29T16:12:48.844Z,28.00
2018-06-29T16:15:23.809Z,28.00
2018-06-29T16:17:58.976Z,28.10
2018-06-29T16:20:34.020Z,28.00
2018-06-29T16:23:09.020Z,27.90
2018-06-29T16:25:44.141Z,27.90
2018-06-29T16:28:19.086Z,27.90
2018-06-29T16:30:54.160Z,27.90
2018-06-29T16:33:29.343Z,27.90
2018-06-29T16:36:04.501Z,27.90
2018-06-29T16:38:39.643Z,27.80
2018-06-29T16:41:14.704Z,27.80
2018-06-29T16:43:49.860Z,27.70
2018-06-29T16:46:24.964Z,27.80
2018-06-29T16:48:59.907Z,27.70
2018-06-29T16:51:53.908Z,27.70
2018-06-29T16:54:35.121Z,27.60
2018-06-29T16:57:10.282Z,27.50
2018-06-29T16:59:45.353Z,27.40
2018-06-29T17:02:20.398Z,27.30
2018-06-29T17:04:55.535Z,27.40
2018-06-29T17:07:30.589Z,27.40
2018-06-29T17:10:05.663Z,27.40
2018-06-29T17:12:40.582Z,27.20
2018-06-29T17:15:15.724Z,27.30
2018-06-29T17:17:50.854Z,27.20
2018-06-29T17:20:25.956Z,27.20
2018-06-29T17:23:01.152Z,27.10
2018-06-29T17:25:36.260Z,27.10
2018-06-29T17:28:11.231Z,27.00
2018-06-29T17:30:46.347Z,27.00
2018-06-29T17:33:32.048Z,27.00
2018-06-29T17:35:56.520Z,27.10
2018-06-29T17:38:31.651Z,26.90
2018-06-29T17:41:06.649Z,26.80
2018-06-29T17:43:41.767Z,26.80
2018-06-29T17:46:16.891Z,26.80
2018-06-29T17:48:51.919Z,26.80
2018-06-29T17:51:27.248Z,26.70
2018-06-29T17:54:02.284Z,26.90
2018-06-29T17:56:37.373Z,26.80
2018-06-29T17:59:12.475Z,26.80
2018-06-29T18:01:47.388Z,26.60
2018-06-29T18:04:22.715Z,26.80
2018-06-29T18:06:57.692Z,26.60
2018-06-29T18:09:32.731Z,26.50
2018-06-29T18:12:07.888Z,26.50
2018-06-29T18:14:42.977Z,26.40
2018-06-29T18:17:18.165Z,26.40
2018-06-29T18:19:53.224Z,26.30
2018-06-29T18:22:28.476Z,26.40
2018-06-29T18:25:03.481Z,26.20
2018-06-29T18:27:47.144Z,26.10
2018-06-29T18:30:22.168Z,26.20
2018-06-29T18:32:57.264Z,26.10
2018-06-29T18:35:32.267Z,26.20
2018-06-29T18:38:07.195Z,26.20
2018-06-29T18:40:42.307Z,26.20
2018-06-29T18:43:17.331Z,26.00
2018-06-29T18:45:52.297Z,26.00
2018-06-29T18:48:27.376Z,26.00
2018-06-29T18:51:02.455Z,26.00
2018-06-29T18:53:37.639Z,25.90
2018-06-29T18:56:12.684Z,25.80
2018-06-29T18:58:47.631Z,25.80
2018-06-29T19:01:22.794Z,25.70
2018-06-29T19:03:57.851Z,25.70
2018-06-29T19:06:32.908Z,25.80
2018-06-29T19:09:09.155Z,25.60
2018-06-29T19:11:44.283Z,25.60
2018-06-29T19:14:19.340Z,25.60
2018-06-29T19:16:54.440Z,25.50
2018-06-29T19:19:29.705Z,25.50
2018-06-29T19:22:04.669Z,25.30
2018-06-29T19:24:39.619Z,25.40
2018-06-29T19:27:14.675Z,25.40
2018-06-29T19:29:49.777Z,25.30
2018-06-29T19:34:59.671Z,25.30
2018-06-29T19:37:34.817Z,25.40
2018-06-29T19:40:09.863Z,25.40
2018-06-29T19:42:44.891Z,25.20
2018-06-29T19:45:20.019Z,25.10
2018-06-29T19:47:55.052Z,25.00
2018-06-29T19:50:30.136Z,24.90
2018-06-29T19:53:05.683Z,24.80
2018-06-29T19:55:40.604Z,24.70
2018-06-29T19:58:15.776Z,24.70
2018-06-29T20:00:50.918Z,24.60
2018-06-29T20:03:25.949Z,24.70
2018-06-29T20:06:01.108Z,24.70
2018-06-29T20:08:36.144Z,24.40
2018-06-29T20:11:11.113Z,24.30
2018-06-29T20:13:46.025Z,24.30
2018-06-29T20:16:21.172Z,24.20
2018-06-29T20:18:56.172Z,23.90
2018-06-29T20:21:31.256Z,23.90
2018-06-29T20:24:06.683Z,23.60
2018-06-29T20:26:42.025Z,23.60
2018-06-29T20:29:17.120Z,23.50
2018-06-29T20:31:52.365Z,23.30
2018-06-29T20:34:27.505Z,23.50
2018-06-29T20:37:02.708Z,23.30
2018-06-29T20:39:37.670Z,23.20
2018-06-29T20:42:12.616Z,23.40
2018-06-29T20:44:47.729Z,23.50
2018-06-29T20:47:22.815Z,23.50
2018-06-29T20:49:57.964Z,23.30
2018-06-29T20:52:32.916Z,23.20
2018-06-29T20:55:08.063Z,23.20
2018-06-29T20:57:43.027Z,23.20
2018-06-29T21:00:42.371Z,23.00
2018-06-29T21:03:17.697Z,23.00
2018-06-29T21:05:52.840Z,22.70
2018-06-29T21:08:27.795Z,22.70
2018-06-29T21:11:02.731Z,22.60
2018-06-29T21:13:37.818Z,22.80
2018-06-29T21:18:47.555Z,22.50
2018-06-29T21:21:22.667Z,22.00
2018-06-29T21:23:57.628Z,22.00
2018-06-29T21:26:32.764Z,22.00
2018-06-29T21:29:07.907Z,22.00
2018-06-29T21:31:43.006Z,21.90
2018-06-29T21:34:18.198Z,21.90
2018-06-29T21:36:53.228Z,22.10
2018-06-29T21:39:28.216Z,22.20
2018-06-29T21:42:03.336Z,22.10
2018-06-29T21:44:38.508Z,22.10
2018-06-29T21:47:13.818Z,22.10
2018-06-29T21:49:48.716Z,21.70
2018-06-29T21:52:23.904Z,21.60
2018-06-29T21:54:58.881Z,21.60
2018-06-29T21:57:33.987Z,21.20
2018-06-29T22:00:10.884Z,21.30
2018-06-29T22:02:45.808Z,21.40
2018-06-29T22:05:20.872Z,21.30
2018-06-29T22:07:55.992Z,21.20
2018-06-29T22:10:30.958Z,21.10
2018-06-29T22:13:06.081Z,21.20
2018-06-29T22:15:41.016Z,21.20
2018-06-29T22:18:16.055Z,21.20
2018-06-29T22:20:51.035Z,21.00
2018-06-29T22:23:26.107Z,21.20
2018-06-29T22:26:01.165Z,21.40
2018-06-29T22:28:36.276Z,21.30
2018-06-29T22:31:11.275Z,21.30
2018-06-29T22:33:46.397Z,21.40
2018-06-29T22:36:21.569Z,20.90
2018-06-29T22:38:56.644Z,20.90
2018-06-29T22:41:31.685Z,21.00
2018-06-29T22:44:06.772Z,21.10
2018-06-29T22:46:41.890Z,20.90
2018-06-29T22:49:16.971Z,20.50
2018-06-29T22:51:52.051Z,20.40
2018-06-29T22:54:27.051Z,20.40
2018-06-29T22:57:02.092Z,20.20
2018-06-29T22:59:37.272Z,20.40
2018-06-29T23:02:12.224Z,20.70
2018-06-29T23:04:47.382Z,21.00
2018-06-29T23:07:22.415Z,20.80
2018-06-29T23:09:57.464Z,20.80
2018-06-29T23:12:32.558Z,20.70
2018-06-29T23:15:07.632Z,20.80
2018-06-29T23:17:42.816Z,20.60
2018-06-29T23:20:17.960Z,20.70
2018-06-29T23:22:53.524Z,20.50
2018-06-29T23:25:28.549Z,20.10
2018-06-29T23:28:03.711Z,20.10
2018-06-29T23:30:38.839Z,19.60
2018-06-29T23:33:13.880Z,20.00
2018-06-29T23:35:48.941Z,20.20
2018-06-29T23:38:24.047Z,20.00
2018-06-29T23:40:59.155Z,20.00
2018-06-29T23:43:34.220Z,19.80
2018-06-29T23:46:09.437Z,19.90
2018-06-29T23:48:44.432Z,19.90
2018-06-29T23:51:19.472Z,19.50
2018-06-29T23:53:54.418Z,19.70
2018-06-29T23:56:30.222Z,19.40
2018-06-29T23:59:05.204Z,19.10
